BRS2952 SBVT-SBSV
Flight info
| Callsign | BRS2952 |
|---|---|
| Flight time | 1h 12m |
| Altitude | 32000 |
| Route | SBVT RWY 02 BUVI3A TERAT UZ42 XUXUG ATEX1A GEVMO RNV RWY 10 SBSV |
| Aircraft | B738/M-V/N |
Departure
| Time | 2026-04-29 01:29 |
|---|---|
| Airport | Eurico de Aguiar Salles International Airport (SBVT) |
Arrival
| Time | 2026-04-29 02:41 |
|---|---|
| Airport | Deputado Luiz Eduardo Magalhães International Airport (SBSV) |
| Time | Latitude | Longitude | Altitude | Speed | Heading |
|---|---|---|---|---|---|
| 2026-04-29 01:29 | -19.94893 | -40.31477 | 10041 ft | 291 kts | 337° |
| 2026-04-29 01:29 | -19.93033 | -40.32394 | 10600 ft | 298 kts | 337° |
| 2026-04-29 01:29 | -19.91091 | -40.33349 | 10932 ft | 314 kts | 337° |
| 2026-04-29 01:30 | -19.89042 | -40.34351 | 11258 ft | 328 kts | 338° |
| 2026-04-29 01:30 | -19.86825 | -40.35221 | 11547 ft | 341 kts | 345° |
| 2026-04-29 01:30 | -19.84487 | -40.35871 | 11793 ft | 355 kts | 348° |
| 2026-04-29 01:30 | -19.82033 | -40.36439 | 12260 ft | 361 kts | 349° |
| 2026-04-29 01:31 | -19.79559 | -40.36990 | 12755 ft | 366 kts | 349° |
| 2026-04-29 01:31 | -19.77064 | -40.37559 | 13305 ft | 368 kts | 349° |
| 2026-04-29 01:31 | -19.74538 | -40.38151 | 13831 ft | 371 kts | 348° |
| 2026-04-29 01:31 | -19.71976 | -40.38766 | 14340 ft | 375 kts | 348° |
| 2026-04-29 01:32 | -19.69405 | -40.39393 | 14807 ft | 379 kts | 348° |
| 2026-04-29 01:32 | -19.66816 | -40.40029 | 15317 ft | 381 kts | 347° |
| 2026-04-29 01:32 | -19.64237 | -40.40665 | 15802 ft | 384 kts | 347° |
| 2026-04-29 01:32 | -19.61623 | -40.41310 | 16281 ft | 387 kts | 347° |
| 2026-04-29 01:33 | -19.58991 | -40.41959 | 16757 ft | 389 kts | 347° |
| 2026-04-29 01:33 | -19.56341 | -40.42611 | 17231 ft | 392 kts | 347° |
| 2026-04-29 01:33 | -19.53646 | -40.43275 | 17663 ft | 395 kts | 347° |
| 2026-04-29 01:33 | -19.50970 | -40.43933 | 18158 ft | 396 kts | 347° |
| 2026-04-29 01:34 | -19.48275 | -40.44595 | 18592 ft | 399 kts | 347° |
| 2026-04-29 01:34 | -19.45554 | -40.45263 | 19052 ft | 400 kts | 347° |
| 2026-04-29 01:34 | -19.42794 | -40.45940 | 19492 ft | 403 kts | 347° |
| 2026-04-29 01:34 | -19.40069 | -40.46608 | 19922 ft | 405 kts | 347° |
| 2026-04-29 01:35 | -19.37307 | -40.47285 | 20367 ft | 406 kts | 347° |
| 2026-04-29 01:35 | -19.34558 | -40.47959 | 20761 ft | 408 kts | 347° |
| 2026-04-29 01:35 | -19.31773 | -40.48641 | 21203 ft | 409 kts | 347° |
| 2026-04-29 01:35 | -19.28997 | -40.49321 | 21621 ft | 411 kts | 347° |
| 2026-04-29 01:36 | -19.26165 | -40.50015 | 22001 ft | 413 kts | 347° |
| 2026-04-29 01:36 | -19.23378 | -40.50697 | 22369 ft | 416 kts | 347° |
| 2026-04-29 01:36 | -19.20553 | -40.51389 | 22754 ft | 418 kts | 347° |
| 2026-04-29 01:36 | -19.17669 | -40.52094 | 23145 ft | 419 kts | 346° |
| 2026-04-29 01:37 | -19.14841 | -40.52786 | 23465 ft | 423 kts | 346° |
| 2026-04-29 01:37 | -19.11957 | -40.53492 | 23804 ft | 426 kts | 346° |
| 2026-04-29 01:37 | -19.09054 | -40.54201 | 24182 ft | 427 kts | 346° |
| 2026-04-29 01:37 | -19.06144 | -40.54913 | 24523 ft | 430 kts | 346° |
| 2026-04-29 01:38 | -19.03193 | -40.55633 | 24844 ft | 433 kts | 346° |
| 2026-04-29 01:38 | -19.00221 | -40.56359 | 25176 ft | 436 kts | 346° |
| 2026-04-29 01:38 | -18.97275 | -40.57078 | 25530 ft | 438 kts | 346° |
| 2026-04-29 01:38 | -18.94268 | -40.57812 | 25862 ft | 440 kts | 346° |
| 2026-04-29 01:39 | -18.91290 | -40.58538 | 26181 ft | 443 kts | 346° |
| 2026-04-29 01:39 | -18.88215 | -40.59288 | 26504 ft | 446 kts | 346° |
| 2026-04-29 01:39 | -18.85170 | -40.60030 | 26821 ft | 448 kts | 346° |
| 2026-04-29 01:39 | -18.82138 | -40.60769 | 27129 ft | 451 kts | 346° |
| 2026-04-29 01:40 | -18.79047 | -40.61521 | 27496 ft | 452 kts | 346° |
| 2026-04-29 01:40 | -18.75974 | -40.62270 | 27809 ft | 454 kts | 346° |
| 2026-04-29 01:40 | -18.72892 | -40.63020 | 28349 ft | 450 kts | 346° |
| 2026-04-29 01:40 | -18.69826 | -40.63765 | 28773 ft | 450 kts | 346° |
| 2026-04-29 01:41 | -18.66764 | -40.64510 | 29182 ft | 449 kts | 346° |
| 2026-04-29 01:41 | -18.63701 | -40.65254 | 29640 ft | 447 kts | 347° |
| 2026-04-29 01:41 | -18.60679 | -40.65989 | 30056 ft | 446 kts | 347° |
| 2026-04-29 01:41 | -18.57654 | -40.66723 | 30458 ft | 445 kts | 346° |
| 2026-04-29 01:42 | -18.54616 | -40.67461 | 30808 ft | 445 kts | 346° |
| 2026-04-29 01:42 | -18.51566 | -40.68191 | 31162 ft | 445 kts | 347° |
| 2026-04-29 01:42 | -18.48509 | -40.68796 | 31539 ft | 444 kts | 351° |
| 2026-04-29 01:42 | -18.45456 | -40.69107 | 31872 ft | 444 kts | 357° |
| 2026-04-29 01:43 | -18.42329 | -40.69051 | 32100 ft | 446 kts | 4° |
| 2026-04-29 01:43 | -18.39230 | -40.68479 | 32113 ft | 449 kts | 13° |
| 2026-04-29 01:43 | -18.33359 | -40.66130 | 32109 ft | 449 kts | 24° |
| 2026-04-29 01:44 | -18.27767 | -40.63118 | 32109 ft | 450 kts | 27° |
| 2026-04-29 01:44 | -18.22271 | -40.59942 | 32110 ft | 449 kts | 28° |
| 2026-04-29 01:45 | -18.16757 | -40.56723 | 32107 ft | 449 kts | 28° |
| 2026-04-29 01:45 | -18.11282 | -40.53538 | 32107 ft | 450 kts | 28° |
| 2026-04-29 01:46 | -18.05782 | -40.50353 | 32101 ft | 451 kts | 28° |
| 2026-04-29 01:46 | -18.00276 | -40.47176 | 32099 ft | 450 kts | 28° |
| 2026-04-29 01:47 | -17.94737 | -40.43985 | 32096 ft | 450 kts | 28° |
| 2026-04-29 01:47 | -17.89268 | -40.40841 | 32094 ft | 449 kts | 28° |
| 2026-04-29 01:48 | -17.83749 | -40.37669 | 32094 ft | 449 kts | 28° |
| 2026-04-29 01:48 | -17.78254 | -40.34513 | 32095 ft | 450 kts | 27° |
| 2026-04-29 01:49 | -17.72734 | -40.31404 | 32102 ft | 450 kts | 26° |
| 2026-04-29 01:49 | -17.67172 | -40.28348 | 32098 ft | 450 kts | 26° |
| 2026-04-29 01:50 | -17.61604 | -40.25299 | 32098 ft | 449 kts | 26° |
| 2026-04-29 01:50 | -17.56033 | -40.22244 | 32101 ft | 448 kts | 27° |
| 2026-04-29 01:51 | -17.50515 | -40.19214 | 32097 ft | 448 kts | 27° |
| 2026-04-29 01:51 | -17.44974 | -40.16169 | 32092 ft | 449 kts | 26° |
| 2026-04-29 01:52 | -17.39435 | -40.13127 | 32095 ft | 448 kts | 27° |
| 2026-04-29 01:52 | -17.33875 | -40.10074 | 32094 ft | 448 kts | 27° |
| 2026-04-29 01:53 | -17.28349 | -40.07040 | 32094 ft | 448 kts | 27° |
| 2026-04-29 01:53 | -17.22795 | -40.03995 | 32100 ft | 448 kts | 27° |
| 2026-04-29 01:54 | -17.17265 | -40.00966 | 32105 ft | 448 kts | 27° |
| 2026-04-29 01:54 | -17.11682 | -39.97909 | 32107 ft | 449 kts | 27° |
| 2026-04-29 01:55 | -17.06142 | -39.94878 | 32106 ft | 448 kts | 27° |
| 2026-04-29 01:55 | -17.00605 | -39.91850 | 32108 ft | 448 kts | 27° |
| 2026-04-29 01:56 | -16.95090 | -39.88836 | 32099 ft | 448 kts | 27° |
| 2026-04-29 01:56 | -16.89551 | -39.85812 | 32089 ft | 448 kts | 27° |
| 2026-04-29 01:57 | -16.84002 | -39.82786 | 32089 ft | 448 kts | 27° |
| 2026-04-29 01:57 | -16.78473 | -39.79772 | 32082 ft | 448 kts | 27° |
| 2026-04-29 01:58 | -16.72893 | -39.76732 | 32076 ft | 449 kts | 27° |
| 2026-04-29 01:58 | -16.67365 | -39.73723 | 32076 ft | 448 kts | 27° |
| 2026-04-29 01:59 | -16.61790 | -39.70689 | 32073 ft | 448 kts | 27° |
| 2026-04-29 01:59 | -16.56273 | -39.67690 | 32072 ft | 449 kts | 27° |
| 2026-04-29 02:00 | -16.50695 | -39.64659 | 32071 ft | 449 kts | 27° |
| 2026-04-29 02:00 | -16.45157 | -39.61652 | 32066 ft | 448 kts | 27° |
| 2026-04-29 02:01 | -16.39606 | -39.58639 | 32070 ft | 448 kts | 27° |
| 2026-04-29 02:01 | -16.34062 | -39.55633 | 32068 ft | 448 kts | 27° |
| 2026-04-29 02:02 | -16.28473 | -39.52604 | 32068 ft | 448 kts | 27° |
| 2026-04-29 02:02 | -16.22944 | -39.49610 | 32066 ft | 449 kts | 27° |
| 2026-04-29 02:03 | -16.17374 | -39.46596 | 32061 ft | 448 kts | 27° |
| 2026-04-29 02:03 | -16.11803 | -39.43583 | 32059 ft | 448 kts | 27° |
| 2026-04-29 02:04 | -16.06268 | -39.40592 | 32060 ft | 446 kts | 27° |
| 2026-04-29 02:04 | -16.00749 | -39.37613 | 32061 ft | 447 kts | 27° |
| 2026-04-29 02:05 | -15.95051 | -39.35018 | 32061 ft | 446 kts | 17° |
| 2026-04-29 02:05 | -15.88884 | -39.33719 | 32062 ft | 448 kts | 8° |
| 2026-04-29 02:06 | -15.82716 | -39.32956 | 32063 ft | 447 kts | 6° |
| 2026-04-29 02:06 | -15.76498 | -39.32256 | 32064 ft | 446 kts | 6° |
| 2026-04-29 02:07 | -15.70309 | -39.31520 | 32063 ft | 446 kts | 7° |
| 2026-04-29 02:07 | -15.64103 | -39.30743 | 32067 ft | 446 kts | 7° |
| 2026-04-29 02:08 | -15.57916 | -39.29947 | 32063 ft | 447 kts | 7° |
| 2026-04-29 02:08 | -15.51676 | -39.29137 | 32060 ft | 448 kts | 7° |
| 2026-04-29 02:09 | -15.45451 | -39.28325 | 32059 ft | 447 kts | 7° |
| 2026-04-29 02:09 | -15.39229 | -39.27513 | 32056 ft | 448 kts | 7° |
| 2026-04-29 02:10 | -15.33056 | -39.26710 | 32060 ft | 447 kts | 7° |
| 2026-04-29 02:10 | -15.26807 | -39.25897 | 32062 ft | 449 kts | 7° |
| 2026-04-29 02:11 | -15.20546 | -39.25082 | 32061 ft | 449 kts | 7° |
| 2026-04-29 02:11 | -15.14288 | -39.24269 | 32063 ft | 449 kts | 7° |
| 2026-04-29 02:12 | -15.08064 | -39.23461 | 32066 ft | 449 kts | 7° |
| 2026-04-29 02:12 | -15.01833 | -39.22652 | 32065 ft | 450 kts | 8° |
| 2026-04-29 02:13 | -14.95562 | -39.21838 | 32067 ft | 450 kts | 7° |
| 2026-04-29 02:13 | -14.89311 | -39.21028 | 32066 ft | 449 kts | 8° |
| 2026-04-29 02:14 | -14.83046 | -39.20216 | 32063 ft | 449 kts | 7° |
| 2026-04-29 02:14 | -14.76797 | -39.19406 | 32062 ft | 449 kts | 7° |
| 2026-04-29 02:15 | -14.70530 | -39.18595 | 32058 ft | 450 kts | 7° |
| 2026-04-29 02:15 | -14.64305 | -39.17789 | 32056 ft | 450 kts | 8° |
| 2026-04-29 02:16 | -14.58037 | -39.16980 | 32050 ft | 449 kts | 8° |
| 2026-04-29 02:16 | -14.51786 | -39.16172 | 32049 ft | 449 kts | 8° |
| 2026-04-29 02:17 | -14.45542 | -39.15365 | 32028 ft | 448 kts | 8° |
| 2026-04-29 02:17 | -14.42464 | -39.14967 | 31732 ft | 444 kts | 8° |
| 2026-04-29 02:17 | -14.39378 | -39.14570 | 31413 ft | 436 kts | 8° |
| 2026-04-29 02:18 | -14.36372 | -39.14183 | 31039 ft | 429 kts | 8° |
| 2026-04-29 02:18 | -14.33428 | -39.13804 | 30550 ft | 427 kts | 8° |
| 2026-04-29 02:18 | -14.30478 | -39.13424 | 30007 ft | 425 kts | 8° |
| 2026-04-29 02:18 | -14.27516 | -39.13042 | 29442 ft | 423 kts | 8° |
| 2026-04-29 02:19 | -14.24555 | -39.12660 | 28880 ft | 422 kts | 9° |
| 2026-04-29 02:19 | -14.21655 | -39.12286 | 28333 ft | 421 kts | 9° |
| 2026-04-29 02:19 | -14.18747 | -39.11911 | 27774 ft | 419 kts | 9° |
| 2026-04-29 02:19 | -14.15845 | -39.11537 | 27210 ft | 418 kts | 9° |
| 2026-04-29 02:20 | -14.12936 | -39.11162 | 26641 ft | 417 kts | 9° |
| 2026-04-29 02:20 | -14.10061 | -39.10792 | 26085 ft | 416 kts | 9° |
| 2026-04-29 02:20 | -14.07152 | -39.10418 | 25512 ft | 414 kts | 9° |
| 2026-04-29 02:20 | -14.04306 | -39.10052 | 24953 ft | 412 kts | 9° |
| 2026-04-29 02:21 | -14.01458 | -39.09685 | 24389 ft | 411 kts | 10° |
| 2026-04-29 02:21 | -13.98599 | -39.09318 | 23824 ft | 409 kts | 10° |
| 2026-04-29 02:21 | -13.95771 | -39.08955 | 23277 ft | 407 kts | 10° |
| 2026-04-29 02:21 | -13.92945 | -39.08593 | 22718 ft | 405 kts | 10° |
| 2026-04-29 02:22 | -13.90146 | -39.08233 | 22160 ft | 404 kts | 10° |
| 2026-04-29 02:22 | -13.87309 | -39.07869 | 21596 ft | 402 kts | 10° |
| 2026-04-29 02:22 | -13.84538 | -39.07513 | 21044 ft | 400 kts | 10° |
| 2026-04-29 02:22 | -13.81777 | -39.07158 | 20485 ft | 399 kts | 10° |
| 2026-04-29 02:23 | -13.79010 | -39.06803 | 19926 ft | 397 kts | 10° |
| 2026-04-29 02:23 | -13.76263 | -39.06450 | 19372 ft | 396 kts | 10° |
| 2026-04-29 02:23 | -13.73512 | -39.06083 | 18812 ft | 393 kts | 12° |
| 2026-04-29 02:23 | -13.70875 | -39.05473 | 18269 ft | 388 kts | 21° |
| 2026-04-29 02:24 | -13.68436 | -39.04302 | 17722 ft | 381 kts | 34° |
| 2026-04-29 02:24 | -13.66270 | -39.02725 | 17196 ft | 376 kts | 39° |
| 2026-04-29 02:24 | -13.64226 | -39.01054 | 16680 ft | 374 kts | 41° |
| 2026-04-29 02:25 | -13.60230 | -38.97660 | 15619 ft | 370 kts | 41° |
| 2026-04-29 02:25 | -13.58255 | -38.95993 | 15086 ft | 367 kts | 41° |
| 2026-04-29 02:25 | -13.56255 | -38.94321 | 14566 ft | 365 kts | 41° |
| 2026-04-29 02:25 | -13.54298 | -38.92700 | 14015 ft | 358 kts | 40° |
| 2026-04-29 02:26 | -13.52383 | -38.91125 | 13527 ft | 344 kts | 40° |
| 2026-04-29 02:26 | -13.50543 | -38.89616 | 13043 ft | 331 kts | 40° |
| 2026-04-29 02:26 | -13.48762 | -38.88155 | 12582 ft | 320 kts | 40° |
| 2026-04-29 02:26 | -13.47043 | -38.86744 | 12103 ft | 319 kts | 40° |
| 2026-04-29 02:27 | -13.45305 | -38.85316 | 11648 ft | 318 kts | 40° |
| 2026-04-29 02:27 | -13.43562 | -38.83884 | 11178 ft | 317 kts | 40° |
| 2026-04-29 02:27 | -13.41859 | -38.82487 | 10723 ft | 316 kts | 40° |
| 2026-04-29 02:27 | -13.40138 | -38.81076 | 10378 ft | 311 kts | 40° |
| 2026-04-29 02:28 | -13.38465 | -38.79709 | 10223 ft | 299 kts | 40° |
| 2026-04-29 02:28 | -13.36867 | -38.78404 | 10082 ft | 289 kts | 40° |
| 2026-04-29 02:28 | -13.35290 | -38.77113 | 9739 ft | 286 kts | 40° |
| 2026-04-29 02:28 | -13.33752 | -38.75849 | 9374 ft | 285 kts | 40° |
| 2026-04-29 02:29 | -13.32202 | -38.74578 | 9021 ft | 283 kts | 40° |
| 2026-04-29 02:29 | -13.30665 | -38.73318 | 8648 ft | 281 kts | 40° |
| 2026-04-29 02:29 | -13.29162 | -38.72078 | 8314 ft | 271 kts | 40° |
| 2026-04-29 02:29 | -13.27697 | -38.70875 | 8024 ft | 262 kts | 41° |
| 2026-04-29 02:30 | -13.26282 | -38.69720 | 7685 ft | 257 kts | 41° |
| 2026-04-29 02:30 | -13.24888 | -38.68583 | 7331 ft | 252 kts | 41° |
| 2026-04-29 02:30 | -13.23545 | -38.67482 | 7029 ft | 245 kts | 41° |
| 2026-04-29 02:30 | -13.22228 | -38.66401 | 6715 ft | 239 kts | 41° |
| 2026-04-29 02:31 | -13.20922 | -38.65331 | 6391 ft | 234 kts | 42° |
| 2026-04-29 02:31 | -13.19675 | -38.64307 | 6101 ft | 228 kts | 42° |
| 2026-04-29 02:31 | -13.18435 | -38.63294 | 5821 ft | 223 kts | 41° |
| 2026-04-29 02:31 | -13.17231 | -38.62317 | 5543 ft | 219 kts | 41° |
| 2026-04-29 02:32 | -13.16050 | -38.61353 | 5266 ft | 213 kts | 42° |
| 2026-04-29 02:32 | -13.14910 | -38.60418 | 5017 ft | 206 kts | 43° |
| 2026-04-29 02:32 | -13.13824 | -38.59529 | 4981 ft | 189 kts | 43° |
| 2026-04-29 02:32 | -13.12822 | -38.58714 | 4995 ft | 181 kts | 43° |
| 2026-04-29 02:33 | -13.11819 | -38.57894 | 4993 ft | 183 kts | 43° |
| 2026-04-29 02:33 | -13.10820 | -38.57085 | 4913 ft | 183 kts | 42° |
| 2026-04-29 02:33 | -13.09819 | -38.56274 | 4747 ft | 183 kts | 43° |
| 2026-04-29 02:33 | -13.08826 | -38.55465 | 4528 ft | 180 kts | 43° |
| 2026-04-29 02:34 | -13.07840 | -38.54662 | 4383 ft | 178 kts | 43° |
| 2026-04-29 02:34 | -13.06865 | -38.53870 | 4320 ft | 179 kts | 43° |
| 2026-04-29 02:34 | -13.05882 | -38.53070 | 4261 ft | 180 kts | 43° |
| 2026-04-29 02:34 | -13.04892 | -38.52266 | 4202 ft | 180 kts | 41° |
| 2026-04-29 02:35 | -13.03782 | -38.51657 | 4051 ft | 188 kts | 19° |
| 2026-04-29 02:35 | -13.02461 | -38.51481 | 3819 ft | 189 kts | 9° |
| 2026-04-29 02:35 | -13.01151 | -38.51354 | 3599 ft | 187 kts | 12° |
| 2026-04-29 02:35 | -12.99882 | -38.51182 | 3404 ft | 179 kts | 14° |
| 2026-04-29 02:36 | -12.98661 | -38.51000 | 3206 ft | 175 kts | 14° |
| 2026-04-29 02:36 | -12.97446 | -38.50816 | 3017 ft | 176 kts | 14° |
| 2026-04-29 02:36 | -12.96251 | -38.50640 | 2914 ft | 168 kts | 15° |
| 2026-04-29 02:36 | -12.95148 | -38.50346 | 2770 ft | 159 kts | 34° |
| 2026-04-29 02:37 | -12.94398 | -38.49565 | 2663 ft | 150 kts | 67° |
| 2026-04-29 02:37 | -12.94056 | -38.48569 | 2550 ft | 147 kts | 80° |
| 2026-04-29 02:37 | -12.93867 | -38.47551 | 2438 ft | 146 kts | 82° |
| 2026-04-29 02:37 | -12.93669 | -38.46521 | 2288 ft | 146 kts | 81° |
| 2026-04-29 02:38 | -12.93459 | -38.45496 | 2142 ft | 146 kts | 81° |
| 2026-04-29 02:38 | -12.93254 | -38.44481 | 2001 ft | 145 kts | 81° |
| 2026-04-29 02:38 | -12.93050 | -38.43454 | 1875 ft | 145 kts | 81° |
| 2026-04-29 02:38 | -12.92847 | -38.42453 | 1747 ft | 145 kts | 81° |
| 2026-04-29 02:39 | -12.92647 | -38.41455 | 1658 ft | 141 kts | 82° |
| 2026-04-29 02:39 | -12.92449 | -38.40459 | 1406 ft | 142 kts | 82° |
| 2026-04-29 02:39 | -12.92247 | -38.39455 | 1208 ft | 147 kts | 82° |
| 2026-04-29 02:39 | -12.92043 | -38.38438 | 1027 ft | 142 kts | 80° |
| 2026-04-29 02:40 | -12.91844 | -38.37438 | 822 ft | 144 kts | 79° |
| 2026-04-29 02:40 | -12.91647 | -38.36422 | 565 ft | 151 kts | 82° |
| 2026-04-29 02:40 | -12.91485 | -38.35400 | 426 ft | 140 kts | 81° |
| 2026-04-29 02:40 | -12.91268 | -38.34364 | 311 ft | 147 kts | 76° |
| 2026-04-29 02:41 | -12.91069 | -38.33366 | 40 ft | 133 kts | 75° |
| 2026-04-29 02:41 | -12.90942 | -38.32696 | 39 ft | 57 kts | 76° |
| 2026-04-29 02:41 | -12.90859 | -38.32288 | 45 ft | 56 kts | 83° |
| 2026-04-29 02:41 | -12.90796 | -38.31947 | 51 ft | 32 kts | 79° |
| 2026-04-29 02:42 | -12.90756 | -38.31729 | 54 ft | 29 kts | 80° |
| 2026-04-29 02:42 | -12.90716 | -38.31536 | 58 ft | 26 kts | 78° |
| 2026-04-29 02:42 | -12.90682 | -38.31365 | 61 ft | 23 kts | 78° |
| 2026-04-29 02:42 | -12.90652 | -38.31210 | 60 ft | 22 kts | 79° |
| 2026-04-29 02:43 | -12.90619 | -38.31057 | 57 ft | 21 kts | 77° |
| 2026-04-29 02:43 | -12.90558 | -38.30957 | 56 ft | 11 kts | 117° |
| 2026-04-29 02:43 | -12.90593 | -38.30980 | 55 ft | 6 kts | 253° |
| 2026-04-29 02:43 | -12.90601 | -38.31008 | 57 ft | 1 kts | 253° |
| 2026-04-29 02:44 | -12.90603 | -38.31014 | 57 ft | 5 kts | 253° |
| 2026-04-29 02:44 | -12.90629 | -38.31108 | 58 ft | 14 kts | 256° |
| 2026-04-29 02:44 | -12.90651 | -38.31210 | 60 ft | 17 kts | 258° |
| 2026-04-29 02:44 | -12.90699 | -38.31453 | 60 ft | 41 kts | 260° |
| 2026-04-29 02:45 | -12.90757 | -38.31743 | 54 ft | 41 kts | 258° |
| 2026-04-29 02:45 | -12.90816 | -38.32026 | 49 ft | 40 kts | 259° |
| 2026-04-29 02:45 | -12.90869 | -38.32312 | 45 ft | 40 kts | 258° |
| 2026-04-29 02:45 | -12.90916 | -38.32529 | 41 ft | 14 kts | 256° |
| 2026-04-29 02:46 | -12.90856 | -38.32578 | 40 ft | 12 kts | 352° |
| 2026-04-29 02:46 | -12.90775 | -38.32594 | 40 ft | 11 kts | 348° |
| 2026-04-29 02:46 | -12.90712 | -38.32579 | 40 ft | 8 kts | 47° |
| 2026-04-29 02:46 | -12.90680 | -38.32543 | 41 ft | 5 kts | 48° |
| 2026-04-29 02:47 | -12.90657 | -38.32531 | 42 ft | 2 kts | 348° |
| 2026-04-29 02:47 | -12.90647 | -38.32536 | 42 ft | 0 kts | 326° |
| 2026-04-29 02:47 | -12.90637 | -38.32544 | 42 ft | 3 kts | 321° |
| 2026-04-29 02:47 | -12.90635 | -38.32547 | 42 ft | 0 kts | 319° |